Time;durP1;ratioP1;P1;durP2;ratioP2;P2;SDS_P1;SDS_P2;PMS_P1;PMS_P2;Temp;Humidity;BMP_temperature;BMP_pressure;BME280_temperature;BME280_humidity;BME280_pressure;Samples;Min_cycle;Max_cycle;Signal;HPM_P1;HPM_P2
2024/01/28 00:00:25;;;;;;;10.47;3.07;;;;;;;;;;6188509;28;20589;-58
2024/01/28 00:03:29;;;;;;;8.60;3.70;;;;;;;;;;6172515;28;20290;-58
2024/01/28 00:06:33;;;;;;;15.43;4.20;;;;;;;;;;6187713;28;20296;-58
2024/01/28 00:09:37;;;;;;;19.90;4.93;;;;;;;;;;6187710;28;20377;-62
2024/01/28 00:12:41;;;;;;;11.93;3.03;;;;;;;;;;6188026;28;20301;-58
2024/01/28 00:15:48;;;;;;;13.27;4.20;;;;;;;;;;6187615;28;20304;-57
2024/01/28 00:18:57;;;;;;;25.37;4.47;;;;;;;;;;6187426;28;20297;-58
2024/01/28 00:22:03;;;;;;;6.57;2.57;;;;;;;;;;6187866;28;20298;-58
2024/01/28 00:25:07;;;;;;;11.30;2.97;;;;;;;;;;6187023;28;20296;-58
2024/01/28 00:28:11;;;;;;;5.10;2.20;;;;;;;;;;6187715;28;20296;-58
2024/01/28 00:31:16;;;;;;;8.00;2.53;;;;;;;;;;6187224;28;20301;-58
2024/01/28 00:34:20;;;;;;;28.60;4.93;;;;;;;;;;6187051;28;20293;-58
2024/01/28 00:37:25;;;;;;;32.60;5.80;;;;;;;;;;6187592;28;20308;-57
2024/01/28 00:40:28;;;;;;;27.50;4.60;;;;;;;;;;6187181;28;20597;-58
2024/01/28 00:43:32;;;;;;;10.83;2.70;;;;;;;;;;6188183;28;20325;-58
2024/01/28 00:46:38;;;;;;;5.60;1.87;;;;;;;;;;6187012;28;20299;-59
2024/01/28 00:49:42;;;;;;;7.67;1.93;;;;;;;;;;6187209;28;20302;-58
2024/01/28 00:52:46;;;;;;;5.63;2.00;;;;;;;;;;6187317;28;20297;-59
2024/01/28 00:55:50;;;;;;;6.87;2.00;;;;;;;;;;6186603;28;20293;-58
2024/01/28 00:58:54;;;;;;;7.10;2.10;;;;;;;;;;6186561;28;20297;-58
2024/01/28 01:02:00;;;;;;;7.37;2.20;;;;;;;;;;6186255;28;20304;-58
2024/01/28 01:05:04;;;;;;;9.03;2.23;;;;;;;;;;6185574;28;20289;-59
2024/01/28 01:08:08;;;;;;;7.93;2.00;;;;;;;;;;6186893;28;20301;-59
2024/01/28 01:11:12;;;;;;;6.27;2.00;;;;;;;;;;6186317;28;20301;-59
2024/01/28 01:14:16;;;;;;;9.10;2.40;;;;;;;;;;6186202;28;20294;-58
2024/01/28 01:17:22;;;;;;;6.00;1.70;;;;;;;;;;6186729;28;20293;-59
2024/01/28 01:20:26;;;;;;;5.03;2.20;;;;;;;;;;6186086;28;20546;-59
2024/01/28 01:23:30;;;;;;;4.30;2.07;;;;;;;;;;6186408;28;20408;-58
2024/01/28 01:26:34;;;;;;;7.37;2.20;;;;;;;;;;6185386;28;20567;-58
2024/01/28 01:29:38;;;;;;;8.47;2.50;;;;;;;;;;6186036;28;20293;-59
2024/01/28 01:32:43;;;;;;;7.10;2.00;;;;;;;;;;6186565;28;20305;-59
2024/01/28 01:35:48;;;;;;;13.37;2.73;;;;;;;;;;6188122;28;20565;-59
2024/01/28 01:38:52;;;;;;;8.98;2.67;;;;;;;;;;6186168;28;20531;-58
2024/01/28 01:41:56;;;;;;;6.40;2.00;;;;;;;;;;6186023;28;20297;-58
2024/01/28 01:44:59;;;;;;;5.63;1.80;;;;;;;;;;6185326;28;20479;-59
2024/01/28 01:48:06;;;;;;;8.57;2.27;;;;;;;;;;6186098;28;20289;-58
2024/01/28 01:51:11;;;;;;;9.27;2.10;;;;;;;;;;6185746;28;20537;-59
2024/01/28 01:54:16;;;;;;;4.80;1.47;;;;;;;;;;6185532;28;20308;-57
2024/01/28 01:57:20;;;;;;;14.93;2.00;;;;;;;;;;6186010;28;20317;-58
2024/01/28 02:00:24;;;;;;;12.65;2.20;;;;;;;;;;6184745;28;20317;-59
2024/01/28 02:03:30;;;;;;;10.37;2.20;;;;;;;;;;6167909;28;20297;-59
2024/01/28 02:06:34;;;;;;;4.53;1.90;;;;;;;;;;6184936;28;20317;-59
2024/01/28 02:09:38;;;;;;;3.83;1.73;;;;;;;;;;6185027;28;20463;-59
2024/01/28 02:12:43;;;;;;;6.30;2.03;;;;;;;;;;6167450;28;20309;-58
2024/01/28 02:15:47;;;;;;;17.88;2.38;;;;;;;;;;6184523;28;20534;-59
2024/01/28 02:18:53;;;;;;;6.43;1.70;;;;;;;;;;6184488;28;20297;-58
2024/01/28 02:21:57;;;;;;;6.77;1.60;;;;;;;;;;6184671;28;20292;-59
2024/01/28 02:25:03;;;;;;;11.40;2.13;;;;;;;;;;6183556;28;20309;-59
2024/01/28 02:28:07;;;;;;;8.37;1.80;;;;;;;;;;6185290;28;20301;-60
2024/01/28 02:31:11;;;;;;;7.70;2.10;;;;;;;;;;6185069;28;20290;-58
2024/01/28 02:34:15;;;;;;;6.03;2.10;;;;;;;;;;6184664;28;20297;-58
2024/01/28 02:37:19;;;;;;;7.63;1.87;;;;;;;;;;6185121;28;20297;-58
2024/01/28 02:40:24;;;;;;;8.33;1.93;;;;;;;;;;6184687;28;20297;-57
2024/01/28 02:43:28;;;;;;;6.33;1.80;;;;;;;;;;6184698;28;20293;-57
2024/01/28 02:46:32;;;;;;;6.90;1.90;;;;;;;;;;6184604;28;20297;-58
2024/01/28 02:49:37;;;;;;;8.48;2.25;;;;;;;;;;6184590;28;20393;-57
2024/01/28 02:52:41;;;;;;;8.87;2.20;;;;;;;;;;6185054;28;20297;-56
2024/01/28 02:55:49;;;;;;;7.27;2.40;;;;;;;;;;6183905;28;20297;-58
2024/01/28 02:58:53;;;;;;;6.40;2.00;;;;;;;;;;6184596;28;20289;-56
2024/01/28 03:01:58;;;;;;;15.23;2.93;;;;;;;;;;6184706;28;20302;-57
2024/01/28 03:05:02;;;;;;;13.30;2.10;;;;;;;;;;6184315;28;20302;-58
2024/01/28 03:08:06;;;;;;;4.67;2.23;;;;;;;;;;6185181;28;20297;-57
2024/01/28 03:11:12;;;;;;;9.83;2.20;;;;;;;;;;6185511;28;20290;-58
2024/01/28 03:14:16;;;;;;;4.43;2.27;;;;;;;;;;6184563;28;20369;-58
2024/01/28 03:17:20;;;;;;;15.20;2.13;;;;;;;;;;6184595;28;20316;-58
2024/01/28 03:20:25;;;;;;;8.80;2.10;;;;;;;;;;6183852;28;20301;-58
2024/01/28 03:23:29;;;;;;;10.77;1.80;;;;;;;;;;6184114;28;20301;-59
2024/01/28 03:26:35;;;;;;;7.55;2.22;;;;;;;;;;6185200;28;20317;-56
2024/01/28 03:29:39;;;;;;;5.93;2.00;;;;;;;;;;6188919;28;20302;-57
2024/01/28 03:32:43;;;;;;;11.73;2.30;;;;;;;;;;6189123;28;20647;-57
2024/01/28 03:35:47;;;;;;;9.97;2.27;;;;;;;;;;6188488;28;20294;-60
2024/01/28 03:38:53;;;;;;;11.17;2.00;;;;;;;;;;6188240;28;20288;-58
2024/01/28 03:41:59;;;;;;;7.70;2.10;;;;;;;;;;6188747;28;20289;-59
2024/01/28 03:45:03;;;;;;;7.38;2.30;;;;;;;;;;6187952;28;20302;-58
2024/01/28 03:48:07;;;;;;;8.65;1.88;;;;;;;;;;6188576;28;20297;-57
2024/01/28 03:51:13;;;;;;;11.00;2.23;;;;;;;;;;6187929;28;20305;-58
2024/01/28 03:54:17;;;;;;;9.25;1.92;;;;;;;;;;6187998;28;20504;-57
2024/01/28 03:57:23;;;;;;;9.70;2.38;;;;;;;;;;6187814;28;20302;-58
2024/01/28 04:00:29;;;;;;;15.13;2.43;;;;;;;;;;6187481;28;20489;-58
2024/01/28 04:03:33;;;;;;;8.70;2.40;;;;;;;;;;6184831;28;20562;-56
2024/01/28 04:06:43;;;;;;;6.47;2.13;;;;;;;;;;6188119;28;20302;-57
2024/01/28 04:09:47;;;;;;;11.30;2.20;;;;;;;;;;6187198;28;20294;-58
2024/01/28 04:12:53;;;;;;;11.32;2.30;;;;;;;;;;6187690;28;20321;-56
2024/01/28 04:15:57;;;;;;;8.23;2.45;;;;;;;;;;6188065;28;20290;-57
2024/01/28 04:19:01;;;;;;;7.68;2.72;;;;;;;;;;6187135;28;20298;-58
2024/01/28 04:22:05;;;;;;;11.43;2.40;;;;;;;;;;6187862;28;20490;-56
2024/01/28 04:25:10;;;;;;;12.50;2.20;;;;;;;;;;6187004;28;20472;-57
2024/01/28 04:28:16;;;;;;;11.35;2.08;;;;;;;;;;6187384;28;20294;-57
2024/01/28 04:31:20;;;;;;;9.80;2.50;;;;;;;;;;6169548;28;20482;-58
2024/01/28 04:34:24;;;;;;;11.00;2.38;;;;;;;;;;6163058;29;20294;-57
2024/01/28 04:37:29;;;;;;;10.95;1.90;;;;;;;;;;6163338;28;20438;-58
2024/01/28 04:40:34;;;;;;;12.55;2.70;;;;;;;;;;6162988;28;20298;-58
2024/01/28 04:43:41;;;;;;;8.80;2.40;;;;;;;;;;6162920;28;20461;-58
2024/01/28 04:46:45;;;;;;;4.10;2.28;;;;;;;;;;6163875;28;20290;-58
2024/01/28 04:49:49;;;;;;;9.27;2.27;;;;;;;;;;6163155;28;20290;-57
2024/01/28 04:52:53;;;;;;;6.20;2.43;;;;;;;;;;6162612;28;20318;-58
2024/01/28 04:55:57;;;;;;;13.10;2.30;;;;;;;;;;6163278;28;20290;-57
2024/01/28 04:59:04;;;;;;;7.88;1.92;;;;;;;;;;6162829;28;20295;-58
2024/01/28 05:02:07;;;;;;;16.33;2.70;;;;;;;;;;6163369;28;20295;-57
2024/01/28 05:05:12;;;;;;;11.82;2.47;;;;;;;;;;6162397;28;20296;-58
2024/01/28 05:08:16;;;;;;;10.77;2.58;;;;;;;;;;6162501;28;20299;-56
2024/01/28 05:11:20;;;;;;;11.80;2.70;;;;;;;;;;6178727;28;20298;-59
2024/01/28 05:14:25;;;;;;;10.82;2.40;;;;;;;;;;6186088;28;20474;-57
2024/01/28 05:17:29;;;;;;;17.10;3.73;;;;;;;;;;6186914;28;20298;-59
2024/01/28 05:20:33;;;;;;;10.43;2.93;;;;;;;;;;6186157;28;20306;-56
2024/01/28 05:23:37;;;;;;;14.60;2.35;;;;;;;;;;6160436;28;20322;-58
2024/01/28 05:26:41;;;;;;;13.30;2.37;;;;;;;;;;6146757;28;20603;-58
2024/01/28 05:29:46;;;;;;;10.10;2.77;;;;;;;;;;6136086;29;20303;-58
2024/01/28 05:32:51;;;;;;;12.53;2.40;;;;;;;;;;6137715;28;20302;-58
2024/01/28 05:35:57;;;;;;;7.33;1.97;;;;;;;;;;6138429;28;20294;-58
2024/01/28 05:39:01;;;;;;;10.80;2.20;;;;;;;;;;6138067;28;20436;-58
2024/01/28 05:42:05;;;;;;;7.67;2.00;;;;;;;;;;6138447;28;20307;-56
2024/01/28 05:45:11;;;;;;;15.45;2.47;;;;;;;;;;6138106;28;20550;-58
2024/01/28 05:48:15;;;;;;;6.57;1.97;;;;;;;;;;6138026;28;20437;-57
2024/01/28 05:51:20;;;;;;;11.20;2.43;;;;;;;;;;6137744;28;20583;-57
2024/01/28 05:54:24;;;;;;;13.43;2.50;;;;;;;;;;6137220;28;20307;-59
2024/01/28 05:57:28;;;;;;;12.50;2.27;;;;;;;;;;6136657;28;20296;-58
2024/01/28 06:00:35;;;;;;;13.50;2.90;;;;;;;;;;6137691;28;20295;-58
2024/01/28 06:03:39;;;;;;;9.52;2.45;;;;;;;;;;6137261;28;20606;-58
2024/01/28 06:06:43;;;;;;;12.25;2.75;;;;;;;;;;6137924;28;20286;-61
2024/01/28 06:09:47;;;;;;;20.05;3.60;;;;;;;;;;6140783;28;20578;-57
2024/01/28 06:12:51;;;;;;;11.80;2.20;;;;;;;;;;6161193;28;20447;-57
2024/01/28 06:15:57;;;;;;;13.43;2.92;;;;;;;;;;6161740;28;20294;-58
2024/01/28 06:19:01;;;;;;;13.10;2.50;;;;;;;;;;6161396;28;20294;-58
2024/01/28 06:22:05;;;;;;;14.10;3.00;;;;;;;;;;6161296;28;20302;-59
2024/01/28 06:25:09;;;;;;;9.10;2.42;;;;;;;;;;6183479;28;20308;-58
2024/01/28 06:28:14;;;;;;;8.32;2.60;;;;;;;;;;6184632;28;20301;-59
2024/01/28 06:31:20;;;;;;;11.30;2.20;;;;;;;;;;6185157;28;20294;-57
2024/01/28 06:34:24;;;;;;;11.67;2.60;;;;;;;;;;6184232;28;20505;-58
2024/01/28 06:37:28;;;;;;;14.75;2.47;;;;;;;;;;6185099;28;20381;-58
2024/01/28 06:40:32;;;;;;;10.37;2.60;;;;;;;;;;6184227;28;20302;-58
2024/01/28 06:43:36;;;;;;;15.00;2.40;;;;;;;;;;6184470;28;20490;-58
2024/01/28 06:46:41;;;;;;;9.45;2.63;;;;;;;;;;6184152;28;20289;-58
2024/01/28 06:49:48;;;;;;;8.18;2.13;;;;;;;;;;6184405;28;20289;-58
2024/01/28 06:52:52;;;;;;;10.80;2.30;;;;;;;;;;6184200;28;20451;-58
2024/01/28 06:55:56;;;;;;;12.13;2.20;;;;;;;;;;6184680;28;20305;-58
2024/01/28 06:59:00;;;;;;;8.43;1.80;;;;;;;;;;6182851;28;20289;-58
2024/01/28 07:02:08;;;;;;;9.60;2.50;;;;;;;;;;6186727;28;20385;-57
2024/01/28 07:05:12;;;;;;;9.32;2.47;;;;;;;;;;6188995;28;20293;-57
2024/01/28 07:08:16;;;;;;;12.82;2.53;;;;;;;;;;6188837;28;20293;-58
2024/01/28 07:11:21;;;;;;;9.30;2.30;;;;;;;;;;6189238;28;20293;-58
2024/01/28 07:14:25;;;;;;;5.88;2.10;;;;;;;;;;6188933;28;20298;-58
2024/01/28 07:17:30;;;;;;;9.02;2.25;;;;;;;;;;6189602;28;20297;-59
2024/01/28 07:20:34;;;;;;;10.70;2.03;;;;;;;;;;6188828;28;20570;-59
2024/01/28 07:23:38;;;;;;;7.65;2.38;;;;;;;;;;6188658;28;20293;-59
2024/01/28 07:26:43;;;;;;;12.20;2.17;;;;;;;;;;6188365;28;20538;-59
2024/01/28 07:29:47;;;;;;;9.48;2.15;;;;;;;;;;6188823;28;20337;-59
2024/01/28 07:32:52;;;;;;;9.60;2.70;;;;;;;;;;6188363;28;20285;-59
2024/01/28 07:35:56;;;;;;;17.70;2.85;;;;;;;;;;6189003;28;20285;-59
2024/01/28 07:39:00;;;;;;;13.55;2.92;;;;;;;;;;6188478;28;20291;-59
2024/01/28 07:42:05;;;;;;;6.40;2.30;;;;;;;;;;6188951;28;20293;-58
2024/01/28 07:45:10;;;;;;;9.68;2.30;;;;;;;;;;6170953;28;20297;-58
2024/01/28 07:48:16;;;;;;;8.32;2.20;;;;;;;;;;6188099;28;20298;-59
2024/01/28 07:51:21;;;;;;;10.00;2.42;;;;;;;;;;6188920;28;20297;-59
2024/01/28 07:54:25;;;;;;;10.60;2.63;;;;;;;;;;6188508;28;20301;-59
2024/01/28 07:57:29;;;;;;;13.18;2.65;;;;;;;;;;6188523;28;20289;-59
2024/01/28 08:00:33;;;;;;;5.45;2.15;;;;;;;;;;6187802;28;20293;-58
2024/01/28 08:03:39;;;;;;;12.10;2.17;;;;;;;;;;6187795;28;20318;-58
2024/01/28 08:06:43;;;;;;;10.57;1.98;;;;;;;;;;6188078;28;20436;-59
2024/01/28 08:09:47;;;;;;;15.40;2.47;;;;;;;;;;6187519;28;20408;-59
2024/01/28 08:12:52;;;;;;;11.38;2.58;;;;;;;;;;6187546;28;20574;-58
2024/01/28 08:16:01;;;;;;;5.10;2.00;;;;;;;;;;6188124;28;20301;-58
2024/01/28 08:19:08;;;;;;;12.80;2.23;;;;;;;;;;6187735;28;20582;-58
2024/01/28 08:22:13;;;;;;;9.13;2.13;;;;;;;;;;6187444;28;20473;-58
2024/01/28 08:25:17;;;;;;;13.27;2.50;;;;;;;;;;6187385;28;20470;-56
2024/01/28 08:28:21;;;;;;;7.60;2.40;;;;;;;;;;6187515;28;20298;-58
2024/01/28 08:31:25;;;;;;;4.50;1.90;;;;;;;;;;6187936;28;20298;-57
2024/01/28 08:34:31;;;;;;;9.13;2.20;;;;;;;;;;6187057;28;20586;-58
2024/01/28 08:37:35;;;;;;;6.28;2.40;;;;;;;;;;6187504;28;20306;-59
2024/01/28 08:40:39;;;;;;;7.40;2.08;;;;;;;;;;6187288;28;20342;-57
2024/01/28 08:43:44;;;;;;;10.05;2.20;;;;;;;;;;6186710;28;20298;-58
2024/01/28 08:46:48;;;;;;;4.45;1.90;;;;;;;;;;6188646;28;20302;-58
2024/01/28 08:49:53;;;;;;;11.18;2.45;;;;;;;;;;6186857;28;20289;-57
2024/01/28 08:52:58;;;;;;;8.90;2.03;;;;;;;;;;6186783;28;20305;-59
2024/01/28 08:56:02;;;;;;;8.33;2.00;;;;;;;;;;6187231;28;20293;-60
2024/01/28 08:59:11;;;;;;;4.80;1.98;;;;;;;;;;6186293;28;20298;-59
2024/01/28 09:02:15;;;;;;;6.32;2.45;;;;;;;;;;6186597;28;20306;-59
2024/01/28 09:05:20;;;;;;;9.02;2.20;;;;;;;;;;6186589;28;20293;-59
2024/01/28 09:08:25;;;;;;;8.57;2.17;;;;;;;;;;6186407;28;20298;-59
2024/01/28 09:11:31;;;;;;;7.05;2.08;;;;;;;;;;6186907;28;20374;-59
2024/01/28 09:14:35;;;;;;;5.13;2.10;;;;;;;;;;6186344;28;20315;-59
2024/01/28 09:17:39;;;;;;;10.73;2.15;;;;;;;;;;6186494;28;20464;-59
2024/01/28 09:20:44;;;;;;;11.75;2.08;;;;;;;;;;6186675;28;20297;-58
2024/01/28 09:23:48;;;;;;;7.28;2.38;;;;;;;;;;6185328;28;20363;-59
2024/01/28 09:26:52;;;;;;;7.20;2.63;;;;;;;;;;6189455;28;20310;-58
2024/01/28 09:29:56;;;;;;;7.80;2.10;;;;;;;;;;6186912;28;20290;-58
2024/01/28 09:33:00;;;;;;;4.63;1.80;;;;;;;;;;6187177;28;20289;-57
2024/01/28 09:36:07;;;;;;;5.05;1.65;;;;;;;;;;6186418;28;20285;-58
2024/01/28 09:39:12;;;;;;;6.22;2.03;;;;;;;;;;6185780;28;20297;-59
2024/01/28 09:42:18;;;;;;;7.72;2.38;;;;;;;;;;6186311;28;20297;-58
2024/01/28 09:45:22;;;;;;;11.90;2.70;;;;;;;;;;6167777;28;20302;-62
2024/01/28 09:48:27;;;;;;;8.60;2.00;;;;;;;;;;6185605;28;20301;-60
2024/01/28 09:51:33;;;;;;;6.40;2.58;;;;;;;;;;6185817;28;20500;-60
2024/01/28 09:54:38;;;;;;;11.10;2.03;;;;;;;;;;6185263;28;20302;-59
2024/01/28 09:57:42;;;;;;;12.07;2.53;;;;;;;;;;6185071;28;20539;-58
2024/01/28 10:00:47;;;;;;;9.93;2.20;;;;;;;;;;6185620;28;20290;-58
2024/01/28 10:03:51;;;;;;;5.05;2.33;;;;;;;;;;6183769;28;20293;-59
2024/01/28 10:06:57;;;;;;;7.53;1.95;;;;;;;;;;6185375;28;20290;-59
2024/01/28 10:10:02;;;;;;;12.82;2.33;;;;;;;;;;6184950;28;20290;-59
2024/01/28 10:13:06;;;;;;;5.43;1.92;;;;;;;;;;6185077;28;20586;-59
2024/01/28 10:16:10;;;;;;;8.48;1.98;;;;;;;;;;6184951;28;20302;-60
2024/01/28 10:19:15;;;;;;;9.15;1.95;;;;;;;;;;6184757;28;20605;-59
2024/01/28 10:22:20;;;;;;;7.82;2.17;;;;;;;;;;6185175;28;20319;-60
2024/01/28 10:25:25;;;;;;;7.57;2.00;;;;;;;;;;6184554;28;20290;-58
2024/01/28 10:28:29;;;;;;;9.10;2.00;;;;;;;;;;6184587;28;20297;-59
2024/01/28 10:31:34;;;;;;;4.68;1.70;;;;;;;;;;6185207;28;20289;-59
2024/01/28 10:34:39;;;;;;;16.63;3.15;;;;;;;;;;6184850;28;20289;-60
2024/01/28 10:37:48;;;;;;;6.70;2.08;;;;;;;;;;6184414;28;20302;-59
2024/01/28 10:40:52;;;;;;;5.82;1.90;;;;;;;;;;6185361;28;20293;-59
2024/01/28 10:43:59;;;;;;;7.70;2.22;;;;;;;;;;6184397;28;20297;-59
2024/01/28 10:47:06;;;;;;;9.75;2.42;;;;;;;;;;6184980;28;20298;-59
2024/01/28 10:50:11;;;;;;;6.13;2.10;;;;;;;;;;6184399;28;20294;-59
2024/01/28 10:53:17;;;;;;;9.80;2.17;;;;;;;;;;6184176;28;20298;-58
2024/01/28 10:56:21;;;;;;;4.35;1.92;;;;;;;;;;6184649;28;20293;-57
2024/01/28 10:59:25;;;;;;;10.13;2.22;;;;;;;;;;6184086;28;20293;-58
2024/01/28 11:02:30;;;;;;;9.38;2.10;;;;;;;;;;6185007;28;20297;-60
2024/01/28 11:05:36;;;;;;;5.60;2.10;;;;;;;;;;6184300;28;20293;-58
2024/01/28 11:08:41;;;;;;;7.38;1.95;;;;;;;;;;6183966;28;20293;-57
2024/01/28 11:11:45;;;;;;;8.93;2.03;;;;;;;;;;6184735;28;20290;-60
2024/01/28 11:14:52;;;;;;;7.15;2.20;;;;;;;;;;6185215;28;20289;-60
2024/01/28 11:17:56;;;;;;;8.10;2.08;;;;;;;;;;6184495;28;20298;-57
2024/01/28 11:21:11;;;;;;;6.50;2.00;;;;;;;;;;6184633;28;20289;-60
2024/01/28 11:24:16;;;;;;;4.38;1.65;;;;;;;;;;6184154;28;20302;-59
2024/01/28 11:27:21;;;;;;;12.65;2.05;;;;;;;;;;6184370;28;20297;-59
2024/01/28 11:30:25;;;;;;;10.45;2.10;;;;;;;;;;6183398;28;20362;-59
2024/01/28 11:33:36;;;;;;;6.97;2.10;;;;;;;;;;6184050;28;20297;-58
2024/01/28 11:36:43;;;;;;;13.38;2.97;;;;;;;;;;6184410;28;20301;-60
2024/01/28 11:39:49;;;;;;;7.75;2.08;;;;;;;;;;6183591;28;20297;-59
2024/01/28 11:42:54;;;;;;;7.03;2.08;;;;;;;;;;6183876;28;20294;-60
2024/01/28 11:46:00;;;;;;;13.10;2.40;;;;;;;;;;6184500;28;20257;-59
2024/01/28 11:49:04;;;;;;;5.57;2.22;;;;;;;;;;6187255;28;20297;-58
2024/01/28 11:52:09;;;;;;;5.78;2.45;;;;;;;;;;6188618;28;20305;-60
2024/01/28 11:55:16;;;;;;;10.50;2.60;;;;;;;;;;6188111;28;20306;-58
2024/01/28 11:58:21;;;;;;;7.43;2.28;;;;;;;;;;6187770;28;20309;-59
2024/01/28 12:01:25;;;;;;;10.48;2.25;;;;;;;;;;6188710;28;20302;-59
2024/01/28 12:04:30;;;;;;;6.70;2.33;;;;;;;;;;6188163;28;20294;-58
2024/01/28 12:07:35;;;;;;;7.80;2.60;;;;;;;;;;6188347;28;20297;-56
2024/01/28 12:10:40;;;;;;;10.00;2.38;;;;;;;;;;6187396;28;20294;-59
2024/01/28 12:13:45;;;;;;;6.50;2.45;;;;;;;;;;6163573;28;20297;-60
2024/01/28 12:16:49;;;;;;;5.95;1.90;;;;;;;;;;6188545;28;20301;-60
2024/01/28 12:19:54;;;;;;;7.47;1.98;;;;;;;;;;6187970;28;20492;-57
2024/01/28 12:22:59;;;;;;;5.38;2.33;;;;;;;;;;6187355;28;22527;-60
2024/01/28 12:26:05;;;;;;;13.18;2.28;;;;;;;;;;6187739;28;20290;-58
2024/01/28 12:29:09;;;;;;;5.22;2.03;;;;;;;;;;6187313;28;20598;-59
2024/01/28 12:32:13;;;;;;;5.85;2.20;;;;;;;;;;6187784;28;20298;-57
2024/01/28 12:35:17;;;;;;;5.57;2.13;;;;;;;;;;6186785;28;20297;-59
2024/01/28 12:38:21;;;;;;;9.68;2.05;;;;;;;;;;6187131;28;20328;-59
2024/01/28 12:41:26;;;;;;;11.50;2.40;;;;;;;;;;6187403;28;20294;-58
2024/01/28 12:44:30;;;;;;;7.05;1.98;;;;;;;;;;6186733;28;20293;-59
2024/01/28 12:47:36;;;;;;;3.80;1.95;;;;;;;;;;6187455;28;20317;-59
2024/01/28 12:50:40;;;;;;;9.52;2.17;;;;;;;;;;6187043;28;20451;-59
2024/01/28 12:53:44;;;;;;;5.50;2.00;;;;;;;;;;6186847;28;20314;-59
2024/01/28 12:56:49;;;;;;;5.38;1.80;;;;;;;;;;6169610;28;20309;-58
2024/01/28 12:59:53;;;;;;;7.97;2.40;;;;;;;;;;6185658;28;20297;-59
2024/01/28 13:02:58;;;;;;;3.22;1.80;;;;;;;;;;6186696;28;20302;-59
2024/01/28 13:06:02;;;;;;;6.38;2.10;;;;;;;;;;6187076;28;20250;-58
2024/01/28 13:09:09;;;;;;;5.00;1.90;;;;;;;;;;6186556;28;20297;-59
2024/01/28 13:12:16;;;;;;;9.73;2.10;;;;;;;;;;6187177;28;20293;-58
2024/01/28 13:15:20;;;;;;;10.60;2.20;;;;;;;;;;6186369;28;20603;-58
2024/01/28 13:18:24;;;;;;;4.80;1.95;;;;;;;;;;6185899;28;20305;-60
2024/01/28 13:21:37;;;;;;;8.80;2.08;;;;;;;;;;6186769;28;20294;-59
2024/01/28 13:24:42;;;;;;;9.35;2.42;;;;;;;;;;6185723;28;20301;-60
2024/01/28 13:27:47;;;;;;;5.75;1.88;;;;;;;;;;6185931;28;20294;-60
2024/01/28 13:30:51;;;;;;;7.13;2.53;;;;;;;;;;6186056;28;20542;-58
2024/01/28 13:33:55;;;;;;;3.97;1.90;;;;;;;;;;6185896;28;20285;-58
2024/01/28 13:36:59;;;;;;;10.23;1.88;;;;;;;;;;6186315;28;20293;-58
2024/01/28 13:40:04;;;;;;;7.80;2.17;;;;;;;;;;6185629;28;20318;-57
2024/01/28 13:43:09;;;;;;;11.07;2.30;;;;;;;;;;6186465;28;20602;-59
2024/01/28 13:46:13;;;;;;;5.45;1.80;;;;;;;;;;6186100;28;20305;-57
2024/01/28 13:49:17;;;;;;;7.13;2.28;;;;;;;;;;6185529;28;20298;-59
2024/01/28 13:52:21;;;;;;;7.00;2.03;;;;;;;;;;6185830;28;20309;-58
2024/01/28 13:55:25;;;;;;;4.20;1.80;;;;;;;;;;6185411;28;20459;-59
2024/01/28 13:58:30;;;;;;;5.65;1.70;;;;;;;;;;6185317;28;20480;-59
2024/01/28 14:01:34;;;;;;;7.80;1.83;;;;;;;;;;6185646;28;20297;-58
2024/01/28 14:04:38;;;;;;;8.02;1.80;;;;;;;;;;6185134;28;20293;-57
2024/01/28 14:07:44;;;;;;;9.52;2.22;;;;;;;;;;6185221;28;20289;-58
2024/01/28 14:10:49;;;;;;;3.08;1.80;;;;;;;;;;6185414;28;20429;-59
2024/01/28 14:13:54;;;;;;;7.07;1.60;;;;;;;;;;6185218;28;20302;-59
2024/01/28 14:16:58;;;;;;;7.18;2.15;;;;;;;;;;6185627;28;20294;-59
2024/01/28 14:20:02;;;;;;;4.38;1.75;;;;;;;;;;6184994;28;20306;-59
2024/01/28 14:23:06;;;;;;;6.10;1.92;;;;;;;;;;6184915;28;20582;-59
2024/01/28 14:26:12;;;;;;;7.55;2.22;;;;;;;;;;6185342;28;20293;-59
2024/01/28 14:29:18;;;;;;;5.90;2.10;;;;;;;;;;6184865;28;20297;-58
2024/01/28 14:32:22;;;;;;;13.02;2.13;;;;;;;;;;6185299;28;20298;-59
2024/01/28 14:35:25;;;;;;;5.22;1.90;;;;;;;;;;6184450;28;20337;-58
2024/01/28 14:38:29;;;;;;;8.00;2.25;;;;;;;;;;6184501;28;20297;-59
2024/01/28 14:41:33;;;;;;;7.38;2.50;;;;;;;;;;6185113;28;20293;-58
2024/01/28 14:44:39;;;;;;;4.97;1.70;;;;;;;;;;6184645;28;20293;-57
2024/01/28 14:47:43;;;;;;;4.82;1.92;;;;;;;;;;6184234;28;20310;-58
2024/01/28 14:50:47;;;;;;;4.40;2.03;;;;;;;;;;6184677;28;20302;-60
2024/01/28 14:53:51;;;;;;;2.17;1.50;;;;;;;;;;6184249;28;20575;-59
2024/01/28 14:56:55;;;;;;;3.60;1.70;;;;;;;;;;6184786;28;20281;-58
2024/01/28 15:00:00;;;;;;;6.05;1.73;;;;;;;;;;6184195;28;20297;-58
2024/01/28 15:03:05;;;;;;;5.75;2.17;;;;;;;;;;6183956;28;20301;-58
2024/01/28 15:06:09;;;;;;;5.55;1.63;;;;;;;;;;6184607;28;20289;-59
2024/01/28 15:09:14;;;;;;;6.93;1.98;;;;;;;;;;6184141;28;20301;-57
2024/01/28 15:12:18;;;;;;;4.97;1.85;;;;;;;;;;6184640;28;20462;-58
2024/01/28 15:15:27;;;;;;;3.58;1.77;;;;;;;;;;6183818;28;20301;-58
2024/01/28 15:18:31;;;;;;;4.95;2.00;;;;;;;;;;6184061;28;20318;-57
2024/01/28 15:21:35;;;;;;;1.93;1.70;;;;;;;;;;6184779;28;20298;-59
2024/01/28 15:24:39;;;;;;;6.82;1.90;;;;;;;;;;6188507;28;20289;-59
2024/01/28 15:27:43;;;;;;;5.35;1.60;;;;;;;;;;6164877;28;20330;-60
2024/01/28 15:30:49;;;;;;;5.93;1.88;;;;;;;;;;6165045;28;20298;-59
2024/01/28 15:33:53;;;;;;;7.47;2.05;;;;;;;;;;6164722;29;20298;-60
2024/01/28 15:36:57;;;;;;;2.20;1.65;;;;;;;;;;6165009;28;20290;-59
2024/01/28 15:40:01;;;;;;;4.35;1.80;;;;;;;;;;6164501;29;20295;-59
2024/01/28 15:43:06;;;;;;;9.63;2.00;;;;;;;;;;6164245;29;20302;-58
2024/01/28 15:46:11;;;;;;;8.18;2.00;;;;;;;;;;6165113;29;20347;-59
2024/01/28 15:49:15;;;;;;;6.85;2.20;;;;;;;;;;6164491;29;20303;-58
2024/01/28 15:52:19;;;;;;;5.05;2.08;;;;;;;;;;6164844;29;20298;-59
2024/01/28 15:55:23;;;;;;;8.85;2.15;;;;;;;;;;6164063;28;20297;-58
2024/01/28 15:58:34;;;;;;;6.63;1.80;;;;;;;;;;6164015;29;20446;-59
2024/01/28 16:01:40;;;;;;;3.10;1.75;;;;;;;;;;6164378;28;20590;-57
2024/01/28 16:04:44;;;;;;;3.13;1.73;;;;;;;;;;6163812;29;20477;-58
2024/01/28 16:07:48;;;;;;;5.25;1.80;;;;;;;;;;6163855;28;20335;-58
2024/01/28 16:10:53;;;;;;;3.17;1.70;;;;;;;;;;6176492;28;20293;-58
2024/01/28 16:13:57;;;;;;;4.07;1.60;;;;;;;;;;6189041;28;20305;-58
2024/01/28 16:17:02;;;;;;;6.35;1.65;;;;;;;;;;6186750;28;20290;-59
2024/01/28 16:20:08;;;;;;;6.38;2.03;;;;;;;;;;6187498;28;20297;-57
2024/01/28 16:23:13;;;;;;;6.65;1.90;;;;;;;;;;6187415;28;20293;-60
2024/01/28 16:26:17;;;;;;;7.60;2.03;;;;;;;;;;6187760;28;20297;-59
2024/01/28 16:29:21;;;;;;;3.78;1.83;;;;;;;;;;6187289;28;20301;-57
2024/01/28 16:32:27;;;;;;;4.88;1.80;;;;;;;;;;6187932;28;20305;-57
2024/01/28 16:35:32;;;;;;;7.97;1.65;;;;;;;;;;6184473;28;20571;-59
2024/01/28 16:38:36;;;;;;;4.50;1.83;;;;;;;;;;6187458;28;20301;-58
2024/01/28 16:41:39;;;;;;;4.23;1.73;;;;;;;;;;6187701;28;20305;-58
2024/01/28 16:44:43;;;;;;;5.13;1.77;;;;;;;;;;6187025;28;20298;-58
2024/01/28 16:47:49;;;;;;;8.05;2.00;;;;;;;;;;6186698;28;20289;-59
2024/01/28 16:50:54;;;;;;;7.22;1.92;;;;;;;;;;6187251;28;20298;-60
2024/01/28 16:53:59;;;;;;;5.27;2.10;;;;;;;;;;6186895;28;20289;-59
2024/01/28 16:57:02;;;;;;;6.87;2.33;;;;;;;;;;6187509;28;20297;-58
2024/01/28 17:00:08;;;;;;;9.80;2.20;;;;;;;;;;6186739;28;20293;-59
2024/01/28 17:03:15;;;;;;;5.03;2.10;;;;;;;;;;6186335;28;20289;-60
2024/01/28 17:06:19;;;;;;;9.80;2.30;;;;;;;;;;6186696;28;20293;-59
2024/01/28 17:09:23;;;;;;;5.67;2.20;;;;;;;;;;6185381;28;20451;-59
2024/01/28 17:12:28;;;;;;;5.68;2.15;;;;;;;;;;6187334;28;20293;-59
2024/01/28 17:15:32;;;;;;;2.30;1.73;;;;;;;;;;6186485;28;20294;-59
2024/01/28 17:18:41;;;;;;;10.93;2.37;;;;;;;;;;6186252;28;20293;-59
2024/01/28 17:21:45;;;;;;;10.10;3.40;;;;;;;;;;6186792;28;20309;-60
2024/01/28 17:24:49;;;;;;;6.55;1.73;;;;;;;;;;6186095;28;20449;-59
2024/01/28 17:27:55;;;;;;;4.73;1.80;;;;;;;;;;6186818;28;20222;-59
2024/01/28 17:30:59;;;;;;;4.70;2.07;;;;;;;;;;6187229;28;20304;-59
2024/01/28 17:34:05;;;;;;;7.90;2.17;;;;;;;;;;6186049;28;20294;-60
2024/01/28 17:37:10;;;;;;;4.87;2.20;;;;;;;;;;6186534;28;20318;-59
2024/01/28 17:40:14;;;;;;;5.60;2.07;;;;;;;;;;6185816;28;20578;-59
2024/01/28 17:43:19;;;;;;;4.10;2.27;;;;;;;;;;6186008;28;20381;-59
2024/01/28 17:46:23;;;;;;;10.83;2.50;;;;;;;;;;6185034;28;20577;-60
2024/01/28 17:49:29;;;;;;;6.37;2.07;;;;;;;;;;6182035;28;20297;-60
2024/01/28 17:52:33;;;;;;;8.57;2.67;;;;;;;;;;6182928;28;20310;-59
2024/01/28 17:55:37;;;;;;;3.30;2.20;;;;;;;;;;6185529;28;20293;-60
2024/01/28 17:58:41;;;;;;;9.50;2.40;;;;;;;;;;6183458;28;20293;-58
2024/01/28 18:01:45;;;;;;;8.90;2.13;;;;;;;;;;6185976;28;20290;-58
2024/01/28 18:04:51;;;;;;;10.33;2.73;;;;;;;;;;6185289;28;20293;-58
2024/01/28 18:07:55;;;;;;;6.47;2.60;;;;;;;;;;6185469;28;20562;-59
2024/01/28 18:11:02;;;;;;;8.07;2.07;;;;;;;;;;6186148;28;20298;-59
2024/01/28 18:14:06;;;;;;;3.83;2.13;;;;;;;;;;6185064;28;20318;-59
2024/01/28 18:17:11;;;;;;;9.20;2.27;;;;;;;;;;6185889;28;20297;-61
2024/01/28 18:20:42;;;;;;;9.07;2.33;;;;;;;;;;6173351;28;20305;-59